Tarrant West's Hourly Summary for Sunday, May 6, 2018
Hour Temp
(f)
RH
(%)
Solar Rad.
(MJ/m2)
Rainfall
(in)
Wind
(mph)
5/6/2018 12:00 AM 67 47 0 0 2.4
5/6/2018 1:00 AM 64 52 0 0 4.88
5/6/2018 2:00 AM 64 54 0 0 4.9
5/6/2018 3:00 AM 63 54 0 0 5.08
5/6/2018 4:00 AM 61 60 0 0 4.97
5/6/2018 5:00 AM 59 67 0 0 4.75
5/6/2018 6:00 AM 59 67 0 0 5.28
5/6/2018 7:00 AM 61 65 0.26 0 5.1
5/6/2018 8:00 AM 66 59 0.95 0 6.08
5/6/2018 9:00 AM 71 52 1.69 0 7.38
5/6/2018 10:00 AM 75 44 2.34 0 7.65
5/6/2018 11:00 AM 77 37 2.89 0 5.92
5/6/2018 12:00 PM 79 36 3.26 0 4.42
5/6/2018 1:00 PM 81 34 3.42 0 3.67
5/6/2018 2:00 PM 83 32 3.35 0 3.7
5/6/2018 3:00 PM 84 31 1.58 0 3.55
5/6/2018 4:00 PM 85 28 2.58 0 2.63
5/6/2018 5:00 PM 86 26 1.95 0 2.33
5/6/2018 6:00 PM 85 30 1.24 0 3.92
5/6/2018 7:00 PM 81 37 0.46 0 4.22
5/6/2018 8:00 PM 75 47 0.02 0 5.22
5/6/2018 9:00 PM 71 58 0 0 6.65
5/6/2018 10:00 PM 69 61 0 0 6.83
5/6/2018 11:00 PM 68 59 0 0 6.95
Data Summary 72 47 25.99 0.00 4.94